sensor_id;sensor_type;location;lat;lon;timestamp;P1;durP1;ratioP1;P2;durP2;ratioP2
40072;SDS011;25774;52.256;9.356;2022-12-18T00:03:44;23.73;;;8.93;;
40072;SDS011;25774;52.256;9.356;2022-12-18T00:06:10;28.65;;;9.77;;
40072;SDS011;25774;52.256;9.356;2022-12-18T00:08:36;28.58;;;10.20;;
40072;SDS011;25774;52.256;9.356;2022-12-18T00:11:08;20.67;;;8.18;;
40072;SDS011;25774;52.256;9.356;2022-12-18T00:16:05;21.95;;;8.48;;
40072;SDS011;25774;52.256;9.356;2022-12-18T00:18:33;20.50;;;8.55;;
40072;SDS011;25774;52.256;9.356;2022-12-18T00:20:59;22.42;;;9.13;;
40072;SDS011;25774;52.256;9.356;2022-12-18T00:23:29;21.88;;;8.07;;
40072;SDS011;25774;52.256;9.356;2022-12-18T00:25:58;16.65;;;7.32;;
40072;SDS011;25774;52.256;9.356;2022-12-18T00:28:24;21.15;;;9.25;;
40072;SDS011;25774;52.256;9.356;2022-12-18T00:30:50;22.33;;;9.15;;
40072;SDS011;25774;52.256;9.356;2022-12-18T00:33:16;21.25;;;8.25;;
40072;SDS011;25774;52.256;9.356;2022-12-18T00:38:07;22.95;;;8.50;;
40072;SDS011;25774;52.256;9.356;2022-12-18T00:40:33;21.20;;;8.87;;
40072;SDS011;25774;52.256;9.356;2022-12-18T00:42:58;19.80;;;9.30;;
40072;SDS011;25774;52.256;9.356;2022-12-18T00:45:28;18.03;;;7.63;;
40072;SDS011;25774;52.256;9.356;2022-12-18T00:47:56;21.73;;;7.53;;
40072;SDS011;25774;52.256;9.356;2022-12-18T00:50:23;15.98;;;6.60;;
40072;SDS011;25774;52.256;9.356;2022-12-18T00:52:49;20.45;;;7.88;;
40072;SDS011;25774;52.256;9.356;2022-12-18T00:55:15;24.25;;;8.32;;
40072;SDS011;25774;52.256;9.356;2022-12-18T00:57:41;18.77;;;8.25;;
40072;SDS011;25774;52.256;9.356;2022-12-18T01:00:08;20.10;;;7.55;;
40072;SDS011;25774;52.256;9.356;2022-12-18T01:02:38;17.20;;;6.55;;
40072;SDS011;25774;52.256;9.356;2022-12-18T01:05:04;20.17;;;8.27;;
40072;SDS011;25774;52.256;9.356;2022-12-18T01:07:30;16.77;;;7.03;;
40072;SDS011;25774;52.256;9.356;2022-12-18T01:09:55;20.58;;;8.10;;
40072;SDS011;25774;52.256;9.356;2022-12-18T01:12:20;21.77;;;7.65;;
40072;SDS011;25774;52.256;9.356;2022-12-18T01:14:46;18.17;;;7.17;;
40072;SDS011;25774;52.256;9.356;2022-12-18T01:17:11;19.20;;;8.03;;
40072;SDS011;25774;52.256;9.356;2022-12-18T01:19:37;22.33;;;7.07;;
40072;SDS011;25774;52.256;9.356;2022-12-18T01:22:02;15.63;;;7.57;;
40072;SDS011;25774;52.256;9.356;2022-12-18T01:24:28;20.42;;;7.97;;
40072;SDS011;25774;52.256;9.356;2022-12-18T01:26:54;21.83;;;7.88;;
40072;SDS011;25774;52.256;9.356;2022-12-18T01:29:22;15.90;;;7.13;;
40072;SDS011;25774;52.256;9.356;2022-12-18T01:31:47;18.10;;;7.03;;
40072;SDS011;25774;52.256;9.356;2022-12-18T01:34:13;25.67;;;9.02;;
40072;SDS011;25774;52.256;9.356;2022-12-18T01:36:38;22.23;;;8.43;;
40072;SDS011;25774;52.256;9.356;2022-12-18T01:39:07;23.13;;;8.32;;
40072;SDS011;25774;52.256;9.356;2022-12-18T01:41:35;20.83;;;8.50;;
40072;SDS011;25774;52.256;9.356;2022-12-18T01:49:51;23.63;;;7.78;;
40072;SDS011;25774;52.256;9.356;2022-12-18T01:52:17;20.55;;;7.88;;
40072;SDS011;25774;52.256;9.356;2022-12-18T01:54:45;20.55;;;9.32;;
40072;SDS011;25774;52.256;9.356;2022-12-18T01:57:12;20.42;;;8.15;;
40072;SDS011;25774;52.256;9.356;2022-12-18T01:59:38;23.13;;;9.48;;
40072;SDS011;25774;52.256;9.356;2022-12-18T02:02:06;20.38;;;8.27;;
40072;SDS011;25774;52.256;9.356;2022-12-18T02:04:32;16.73;;;7.55;;
40072;SDS011;25774;52.256;9.356;2022-12-18T02:07:00;21.63;;;8.43;;
40072;SDS011;25774;52.256;9.356;2022-12-18T02:09:46;21.05;;;8.43;;
40072;SDS011;25774;52.256;9.356;2022-12-18T02:12:27;17.48;;;7.65;;
40072;SDS011;25774;52.256;9.356;2022-12-18T02:17:47;23.40;;;9.00;;
40072;SDS011;25774;52.256;9.356;2022-12-18T02:20:22;25.25;;;8.85;;
40072;SDS011;25774;52.256;9.356;2022-12-18T02:28:28;20.50;;;8.25;;
40072;SDS011;25774;52.256;9.356;2022-12-18T02:30:57;21.25;;;7.97;;
40072;SDS011;25774;52.256;9.356;2022-12-18T02:33:27;19.80;;;8.70;;
40072;SDS011;25774;52.256;9.356;2022-12-18T02:35:54;19.98;;;7.90;;
40072;SDS011;25774;52.256;9.356;2022-12-18T02:38:22;18.63;;;8.27;;
40072;SDS011;25774;52.256;9.356;2022-12-18T02:40:50;18.88;;;7.28;;
40072;SDS011;25774;52.256;9.356;2022-12-18T02:43:17;18.30;;;6.97;;
40072;SDS011;25774;52.256;9.356;2022-12-18T02:45:47;15.40;;;7.50;;
40072;SDS011;25774;52.256;9.356;2022-12-18T02:48:13;21.48;;;8.65;;
40072;SDS011;25774;52.256;9.356;2022-12-18T02:50:41;16.77;;;8.13;;
40072;SDS011;25774;52.256;9.356;2022-12-18T02:55:57;21.63;;;7.95;;
40072;SDS011;25774;52.256;9.356;2022-12-18T03:01:21;17.38;;;7.53;;
40072;SDS011;25774;52.256;9.356;2022-12-18T03:07:15;16.87;;;6.90;;
40072;SDS011;25774;52.256;9.356;2022-12-18T03:09:46;18.55;;;7.20;;
40072;SDS011;25774;52.256;9.356;2022-12-18T03:12:20;23.80;;;7.80;;
40072;SDS011;25774;52.256;9.356;2022-12-18T03:14:53;19.00;;;7.93;;
40072;SDS011;25774;52.256;9.356;2022-12-18T03:17:35;26.83;;;8.00;;
40072;SDS011;25774;52.256;9.356;2022-12-18T03:20:07;20.52;;;7.22;;
40072;SDS011;25774;52.256;9.356;2022-12-18T03:22:39;16.33;;;7.63;;
40072;SDS011;25774;52.256;9.356;2022-12-18T03:25:09;18.63;;;7.45;;
40072;SDS011;25774;52.256;9.356;2022-12-18T03:27:38;20.65;;;8.05;;
40072;SDS011;25774;52.256;9.356;2022-12-18T03:30:12;14.60;;;6.13;;
40072;SDS011;25774;52.256;9.356;2022-12-18T03:33:01;18.52;;;7.70;;
40072;SDS011;25774;52.256;9.356;2022-12-18T03:35:33;14.50;;;6.47;;
40072;SDS011;25774;52.256;9.356;2022-12-18T03:38:04;17.27;;;6.88;;
40072;SDS011;25774;52.256;9.356;2022-12-18T03:40:35;15.60;;;6.35;;
40072;SDS011;25774;52.256;9.356;2022-12-18T03:43:34;18.35;;;7.60;;
40072;SDS011;25774;52.256;9.356;2022-12-18T03:46:14;13.63;;;5.75;;
40072;SDS011;25774;52.256;9.356;2022-12-18T03:48:46;23.08;;;6.95;;
40072;SDS011;25774;52.256;9.356;2022-12-18T03:54:03;18.98;;;6.22;;
40072;SDS011;25774;52.256;9.356;2022-12-18T03:56:33;19.20;;;7.50;;
40072;SDS011;25774;52.256;9.356;2022-12-18T03:59:06;15.70;;;6.60;;
40072;SDS011;25774;52.256;9.356;2022-12-18T04:01:35;15.77;;;7.55;;
40072;SDS011;25774;52.256;9.356;2022-12-18T04:04:05;22.83;;;7.45;;
40072;SDS011;25774;52.256;9.356;2022-12-18T04:06:33;16.77;;;6.18;;
40072;SDS011;25774;52.256;9.356;2022-12-18T04:09:00;16.10;;;7.05;;
40072;SDS011;25774;52.256;9.356;2022-12-18T04:11:26;14.52;;;6.32;;
40072;SDS011;25774;52.256;9.356;2022-12-18T04:13:56;19.15;;;6.93;;
40072;SDS011;25774;52.256;9.356;2022-12-18T04:16:23;18.77;;;6.10;;
40072;SDS011;25774;52.256;9.356;2022-12-18T04:18:52;19.25;;;7.00;;
40072;SDS011;25774;52.256;9.356;2022-12-18T04:21:18;14.63;;;6.22;;
40072;SDS011;25774;52.256;9.356;2022-12-18T04:26:09;14.13;;;6.82;;
40072;SDS011;25774;52.256;9.356;2022-12-18T04:28:35;15.50;;;5.43;;
40072;SDS011;25774;52.256;9.356;2022-12-18T04:31:00;16.20;;;6.77;;
40072;SDS011;25774;52.256;9.356;2022-12-18T04:33:25;18.58;;;6.43;;
40072;SDS011;25774;52.256;9.356;2022-12-18T04:35:51;15.35;;;6.03;;
40072;SDS011;25774;52.256;9.356;2022-12-18T04:38:16;15.17;;;6.73;;
40072;SDS011;25774;52.256;9.356;2022-12-18T04:40:42;14.52;;;5.07;;
40072;SDS011;25774;52.256;9.356;2022-12-18T04:43:07;16.47;;;6.30;;
40072;SDS011;25774;52.256;9.356;2022-12-18T04:45:32;19.53;;;7.03;;
40072;SDS011;25774;52.256;9.356;2022-12-18T04:47:58;14.63;;;5.60;;
40072;SDS011;25774;52.256;9.356;2022-12-18T04:50:25;12.65;;;5.68;;
40072;SDS011;25774;52.256;9.356;2022-12-18T04:52:50;15.85;;;6.35;;
40072;SDS011;25774;52.256;9.356;2022-12-18T04:55:16;13.63;;;5.57;;
40072;SDS011;25774;52.256;9.356;2022-12-18T04:57:41;13.73;;;5.55;;
40072;SDS011;25774;52.256;9.356;2022-12-18T05:00:07;12.77;;;4.93;;
40072;SDS011;25774;52.256;9.356;2022-12-18T05:02:32;12.63;;;5.80;;
40072;SDS011;25774;52.256;9.356;2022-12-18T05:04:58;11.63;;;5.10;;
40072;SDS011;25774;52.256;9.356;2022-12-18T05:07:23;15.27;;;6.93;;
40072;SDS011;25774;52.256;9.356;2022-12-18T05:09:49;16.98;;;6.28;;
40072;SDS011;25774;52.256;9.356;2022-12-18T05:12:14;16.50;;;6.13;;
40072;SDS011;25774;52.256;9.356;2022-12-18T05:14:41;14.43;;;5.90;;
40072;SDS011;25774;52.256;9.356;2022-12-18T05:17:06;14.68;;;6.60;;
40072;SDS011;25774;52.256;9.356;2022-12-18T05:19:32;18.40;;;6.45;;
40072;SDS011;25774;52.256;9.356;2022-12-18T05:21:57;17.60;;;6.40;;
40072;SDS011;25774;52.256;9.356;2022-12-18T05:24:25;12.68;;;5.82;;
40072;SDS011;25774;52.256;9.356;2022-12-18T05:26:50;20.55;;;5.95;;
40072;SDS011;25774;52.256;9.356;2022-12-18T05:29:15;13.20;;;5.77;;
40072;SDS011;25774;52.256;9.356;2022-12-18T05:31:41;12.23;;;5.60;;
40072;SDS011;25774;52.256;9.356;2022-12-18T05:34:06;17.00;;;5.73;;
40072;SDS011;25774;52.256;9.356;2022-12-18T05:36:32;16.73;;;6.70;;
40072;SDS011;25774;52.256;9.356;2022-12-18T05:38:57;18.17;;;6.65;;
40072;SDS011;25774;52.256;9.356;2022-12-18T05:41:22;14.47;;;6.03;;
40072;SDS011;25774;52.256;9.356;2022-12-18T05:43:50;19.07;;;6.90;;
40072;SDS011;25774;52.256;9.356;2022-12-18T05:46:16;14.02;;;6.68;;
40072;SDS011;25774;52.256;9.356;2022-12-18T05:48:43;13.40;;;5.80;;
40072;SDS011;25774;52.256;9.356;2022-12-18T05:51:10;13.32;;;5.45;;
40072;SDS011;25774;52.256;9.356;2022-12-18T05:53:37;18.70;;;6.78;;
40072;SDS011;25774;52.256;9.356;2022-12-18T05:56:04;21.38;;;7.28;;
40072;SDS011;25774;52.256;9.356;2022-12-18T05:58:31;14.63;;;6.22;;
40072;SDS011;25774;52.256;9.356;2022-12-18T06:00:57;17.58;;;6.93;;
40072;SDS011;25774;52.256;9.356;2022-12-18T06:03:31;16.58;;;6.32;;
40072;SDS011;25774;52.256;9.356;2022-12-18T06:05:56;23.20;;;6.25;;
40072;SDS011;25774;52.256;9.356;2022-12-18T06:08:22;15.97;;;6.53;;
40072;SDS011;25774;52.256;9.356;2022-12-18T06:10:51;20.10;;;7.57;;
40072;SDS011;25774;52.256;9.356;2022-12-18T06:13:17;17.38;;;7.05;;
40072;SDS011;25774;52.256;9.356;2022-12-18T06:15:44;17.92;;;7.90;;
40072;SDS011;25774;52.256;9.356;2022-12-18T06:18:11;18.00;;;7.07;;
40072;SDS011;25774;52.256;9.356;2022-12-18T06:20:36;19.15;;;7.72;;
40072;SDS011;25774;52.256;9.356;2022-12-18T06:23:04;17.90;;;6.43;;
40072;SDS011;25774;52.256;9.356;2022-12-18T06:25:30;15.32;;;6.00;;
40072;SDS011;25774;52.256;9.356;2022-12-18T06:27:55;12.53;;;6.13;;
40072;SDS011;25774;52.256;9.356;2022-12-18T06:30:22;14.77;;;6.23;;
40072;SDS011;25774;52.256;9.356;2022-12-18T06:32:48;15.90;;;6.68;;
40072;SDS011;25774;52.256;9.356;2022-12-18T06:35:15;14.85;;;6.45;;
40072;SDS011;25774;52.256;9.356;2022-12-18T06:37:43;18.13;;;6.35;;
40072;SDS011;25774;52.256;9.356;2022-12-18T06:40:10;12.85;;;5.82;;
40072;SDS011;25774;52.256;9.356;2022-12-18T06:42:35;14.45;;;6.15;;
40072;SDS011;25774;52.256;9.356;2022-12-18T06:45:01;20.07;;;6.67;;
40072;SDS011;25774;52.256;9.356;2022-12-18T06:47:26;14.65;;;6.15;;
40072;SDS011;25774;52.256;9.356;2022-12-18T06:49:51;19.80;;;7.27;;
40072;SDS011;25774;52.256;9.356;2022-12-18T06:52:17;15.57;;;6.83;;
40072;SDS011;25774;52.256;9.356;2022-12-18T06:54:43;17.73;;;7.55;;
40072;SDS011;25774;52.256;9.356;2022-12-18T06:57:10;16.88;;;6.97;;
40072;SDS011;25774;52.256;9.356;2022-12-18T06:59:35;18.58;;;6.47;;
40072;SDS011;25774;52.256;9.356;2022-12-18T07:02:01;14.32;;;6.13;;
40072;SDS011;25774;52.256;9.356;2022-12-18T07:04:29;16.57;;;6.50;;
40072;SDS011;25774;52.256;9.356;2022-12-18T07:06:55;18.65;;;6.88;;
40072;SDS011;25774;52.256;9.356;2022-12-18T07:09:22;14.82;;;6.65;;
40072;SDS011;25774;52.256;9.356;2022-12-18T07:11:48;14.50;;;6.13;;
40072;SDS011;25774;52.256;9.356;2022-12-18T07:14:14;15.77;;;5.93;;
40072;SDS011;25774;52.256;9.356;2022-12-18T07:19:05;13.15;;;5.85;;
40072;SDS011;25774;52.256;9.356;2022-12-18T07:21:32;17.02;;;5.97;;
40072;SDS011;25774;52.256;9.356;2022-12-18T07:23:58;18.58;;;6.72;;
40072;SDS011;25774;52.256;9.356;2022-12-18T07:26:25;12.50;;;5.63;;
40072;SDS011;25774;52.256;9.356;2022-12-18T07:28:53;14.43;;;6.65;;
40072;SDS011;25774;52.256;9.356;2022-12-18T07:31:21;14.98;;;5.72;;
40072;SDS011;25774;52.256;9.356;2022-12-18T07:33:47;13.32;;;6.20;;
40072;SDS011;25774;52.256;9.356;2022-12-18T07:36:13;15.32;;;6.30;;
40072;SDS011;25774;52.256;9.356;2022-12-18T07:38:38;17.52;;;7.25;;
40072;SDS011;25774;52.256;9.356;2022-12-18T07:41:08;15.60;;;6.30;;
40072;SDS011;25774;52.256;9.356;2022-12-18T07:43:36;21.48;;;5.95;;
40072;SDS011;25774;52.256;9.356;2022-12-18T07:46:02;16.38;;;5.90;;
40072;SDS011;25774;52.256;9.356;2022-12-18T07:48:29;12.55;;;5.50;;
40072;SDS011;25774;52.256;9.356;2022-12-18T07:51:01;16.35;;;6.00;;
40072;SDS011;25774;52.256;9.356;2022-12-18T07:53:27;13.40;;;5.68;;
40072;SDS011;25774;52.256;9.356;2022-12-18T07:55:57;15.65;;;5.72;;
40072;SDS011;25774;52.256;9.356;2022-12-18T07:58:23;16.50;;;6.50;;
40072;SDS011;25774;52.256;9.356;2022-12-18T08:00:48;23.58;;;7.78;;
40072;SDS011;25774;52.256;9.356;2022-12-18T08:03:14;16.73;;;6.63;;
40072;SDS011;25774;52.256;9.356;2022-12-18T08:05:39;13.33;;;5.90;;
40072;SDS011;25774;52.256;9.356;2022-12-18T08:08:04;14.68;;;5.97;;
40072;SDS011;25774;52.256;9.356;2022-12-18T08:10:30;18.58;;;6.03;;
40072;SDS011;25774;52.256;9.356;2022-12-18T08:12:55;14.60;;;5.60;;
40072;SDS011;25774;52.256;9.356;2022-12-18T08:15:21;10.90;;;5.73;;
40072;SDS011;25774;52.256;9.356;2022-12-18T08:17:46;15.93;;;5.90;;
40072;SDS011;25774;52.256;9.356;2022-12-18T08:20:12;14.00;;;5.53;;
40072;SDS011;25774;52.256;9.356;2022-12-18T08:22:41;20.48;;;6.43;;
40072;SDS011;25774;52.256;9.356;2022-12-18T08:25:08;19.45;;;6.57;;
40072;SDS011;25774;52.256;9.356;2022-12-18T08:27:33;16.73;;;6.13;;
40072;SDS011;25774;52.256;9.356;2022-12-18T08:30:00;14.67;;;6.10;;
40072;SDS011;25774;52.256;9.356;2022-12-18T08:32:26;11.90;;;5.63;;
40072;SDS011;25774;52.256;9.356;2022-12-18T08:34:52;15.82;;;6.50;;
40072;SDS011;25774;52.256;9.356;2022-12-18T08:37:17;11.07;;;5.10;;
40072;SDS011;25774;52.256;9.356;2022-12-18T08:39:44;15.07;;;6.43;;
40072;SDS011;25774;52.256;9.356;2022-12-18T08:42:09;13.23;;;6.30;;
40072;SDS011;25774;52.256;9.356;2022-12-18T08:44:54;14.38;;;5.72;;
40072;SDS011;25774;52.256;9.356;2022-12-18T08:47:19;13.77;;;5.80;;
40072;SDS011;25774;52.256;9.356;2022-12-18T08:49:45;18.87;;;5.43;;
40072;SDS011;25774;52.256;9.356;2022-12-18T08:52:10;13.60;;;5.20;;
40072;SDS011;25774;52.256;9.356;2022-12-18T08:54:36;12.50;;;5.47;;
40072;SDS011;25774;52.256;9.356;2022-12-18T08:57:01;16.97;;;5.27;;
40072;SDS011;25774;52.256;9.356;2022-12-18T08:59:27;10.85;;;4.78;;
40072;SDS011;25774;52.256;9.356;2022-12-18T09:01:53;11.37;;;5.17;;
40072;SDS011;25774;52.256;9.356;2022-12-18T09:04:20;15.13;;;6.35;;
40072;SDS011;25774;52.256;9.356;2022-12-18T09:06:45;15.43;;;5.40;;
40072;SDS011;25774;52.256;9.356;2022-12-18T09:09:11;15.73;;;5.07;;
40072;SDS011;25774;52.256;9.356;2022-12-18T09:11:37;14.05;;;6.07;;
40072;SDS011;25774;52.256;9.356;2022-12-18T09:14:03;12.52;;;5.65;;
40072;SDS011;25774;52.256;9.356;2022-12-18T09:16:28;14.23;;;5.93;;
40072;SDS011;25774;52.256;9.356;2022-12-18T09:18:55;13.55;;;6.00;;
40072;SDS011;25774;52.256;9.356;2022-12-18T09:21:24;14.18;;;5.22;;
40072;SDS011;25774;52.256;9.356;2022-12-18T09:23:51;12.43;;;6.15;;
40072;SDS011;25774;52.256;9.356;2022-12-18T09:26:17;14.18;;;5.28;;
40072;SDS011;25774;52.256;9.356;2022-12-18T09:28:43;15.55;;;5.97;;
40072;SDS011;25774;52.256;9.356;2022-12-18T09:31:10;12.05;;;5.28;;
40072;SDS011;25774;52.256;9.356;2022-12-18T09:33:37;15.32;;;6.18;;
40072;SDS011;25774;52.256;9.356;2022-12-18T09:36:03;17.48;;;6.43;;
40072;SDS011;25774;52.256;9.356;2022-12-18T09:38:31;13.23;;;6.53;;
40072;SDS011;25774;52.256;9.356;2022-12-18T09:43:45;15.32;;;5.30;;
40072;SDS011;25774;52.256;9.356;2022-12-18T09:46:22;10.13;;;5.20;;
40072;SDS011;25774;52.256;9.356;2022-12-18T09:48:59;12.13;;;5.45;;
40072;SDS011;25774;52.256;9.356;2022-12-18T09:51:29;11.85;;;4.65;;
40072;SDS011;25774;52.256;9.356;2022-12-18T09:54:01;13.02;;;5.43;;
40072;SDS011;25774;52.256;9.356;2022-12-18T09:56:31;14.93;;;6.13;;
40072;SDS011;25774;52.256;9.356;2022-12-18T09:59:02;13.27;;;6.50;;
40072;SDS011;25774;52.256;9.356;2022-12-18T10:01:29;16.55;;;6.63;;
40072;SDS011;25774;52.256;9.356;2022-12-18T10:03:56;13.30;;;6.15;;
40072;SDS011;25774;52.256;9.356;2022-12-18T10:06:32;13.40;;;5.88;;
40072;SDS011;25774;52.256;9.356;2022-12-18T10:11:55;14.23;;;6.53;;
40072;SDS011;25774;52.256;9.356;2022-12-18T10:20:05;11.02;;;5.93;;
40072;SDS011;25774;52.256;9.356;2022-12-18T10:25:20;14.90;;;5.88;;
40072;SDS011;25774;52.256;9.356;2022-12-18T10:27:54;12.25;;;5.75;;
40072;SDS011;25774;52.256;9.356;2022-12-18T10:30:23;17.08;;;6.15;;
40072;SDS011;25774;52.256;9.356;2022-12-18T10:32:50;16.83;;;6.70;;
40072;SDS011;25774;52.256;9.356;2022-12-18T10:35:20;15.48;;;5.93;;
40072;SDS011;25774;52.256;9.356;2022-12-18T10:38:00;14.52;;;5.95;;
40072;SDS011;25774;52.256;9.356;2022-12-18T10:40:26;11.88;;;5.68;;
40072;SDS011;25774;52.256;9.356;2022-12-18T10:45:37;13.73;;;5.97;;
40072;SDS011;25774;52.256;9.356;2022-12-18T10:48:02;18.43;;;7.27;;
40072;SDS011;25774;52.256;9.356;2022-12-18T10:50:29;17.70;;;6.18;;
40072;SDS011;25774;52.256;9.356;2022-12-18T10:53:01;12.80;;;5.82;;
40072;SDS011;25774;52.256;9.356;2022-12-18T10:55:34;13.73;;;5.50;;
40072;SDS011;25774;52.256;9.356;2022-12-18T11:01:17;15.93;;;5.82;;
40072;SDS011;25774;52.256;9.356;2022-12-18T11:03:45;12.02;;;5.45;;
40072;SDS011;25774;52.256;9.356;2022-12-18T11:06:31;10.43;;;5.03;;
40072;SDS011;25774;52.256;9.356;2022-12-18T11:08:59;12.43;;;5.43;;
40072;SDS011;25774;52.256;9.356;2022-12-18T11:11:28;12.13;;;5.07;;
40072;SDS011;25774;52.256;9.356;2022-12-18T11:13:58;12.40;;;5.22;;
40072;SDS011;25774;52.256;9.356;2022-12-18T11:16:33;12.43;;;5.10;;
40072;SDS011;25774;52.256;9.356;2022-12-18T11:22:00;10.13;;;4.47;;
40072;SDS011;25774;52.256;9.356;2022-12-18T11:24:30;14.57;;;5.05;;
40072;SDS011;25774;52.256;9.356;2022-12-18T11:26:58;10.95;;;4.72;;
40072;SDS011;25774;52.256;9.356;2022-12-18T11:29:36;10.88;;;4.70;;
40072;SDS011;25774;52.256;9.356;2022-12-18T11:35:17;13.07;;;5.45;;
40072;SDS011;25774;52.256;9.356;2022-12-18T11:38:10;13.05;;;5.43;;
40072;SDS011;25774;52.256;9.356;2022-12-18T11:40:43;12.30;;;4.63;;
40072;SDS011;25774;52.256;9.356;2022-12-18T11:43:55;10.40;;;4.97;;
40072;SDS011;25774;52.256;9.356;2022-12-18T11:46:17;13.38;;;5.68;;
40072;SDS011;25774;52.256;9.356;2022-12-18T11:48:58;11.07;;;4.82;;
40072;SDS011;25774;52.256;9.356;2022-12-18T11:51:38;10.38;;;4.47;;
40072;SDS011;25774;52.256;9.356;2022-12-18T11:54:14;14.00;;;5.18;;
40072;SDS011;25774;52.256;9.356;2022-12-18T11:59:37;12.27;;;5.20;;
40072;SDS011;25774;52.256;9.356;2022-12-18T12:02:38;7.68;;;4.25;;
40072;SDS011;25774;52.256;9.356;2022-12-18T12:05:44;13.25;;;5.20;;
40072;SDS011;25774;52.256;9.356;2022-12-18T12:08:18;7.22;;;3.67;;
40072;SDS011;25774;52.256;9.356;2022-12-18T12:11:00;9.52;;;4.00;;
40072;SDS011;25774;52.256;9.356;2022-12-18T12:13:53;10.30;;;4.60;;
40072;SDS011;25774;52.256;9.356;2022-12-18T12:16:28;14.85;;;5.28;;
40072;SDS011;25774;52.256;9.356;2022-12-18T12:24:33;12.05;;;4.78;;
40072;SDS011;25774;52.256;9.356;2022-12-18T12:40:36;11.05;;;4.45;;
40072;SDS011;25774;52.256;9.356;2022-12-18T12:43:19;15.43;;;4.68;;
40072;SDS011;25774;52.256;9.356;2022-12-18T12:50:53;11.95;;;4.25;;
40072;SDS011;25774;52.256;9.356;2022-12-18T12:53:22;14.15;;;4.68;;
40072;SDS011;25774;52.256;9.356;2022-12-18T12:55:52;8.55;;;4.40;;
40072;SDS011;25774;52.256;9.356;2022-12-18T12:58:23;11.18;;;4.57;;
40072;SDS011;25774;52.256;9.356;2022-12-18T13:01:01;8.40;;;4.38;;
40072;SDS011;25774;52.256;9.356;2022-12-18T13:06:30;9.63;;;3.70;;
40072;SDS011;25774;52.256;9.356;2022-12-18T13:08:56;9.75;;;3.80;;
40072;SDS011;25774;52.256;9.356;2022-12-18T13:14:34;6.88;;;3.90;;
40072;SDS011;25774;52.256;9.356;2022-12-18T13:20:10;12.57;;;4.25;;
40072;SDS011;25774;52.256;9.356;2022-12-18T13:22:40;8.52;;;4.43;;
40072;SDS011;25774;52.256;9.356;2022-12-18T13:35:41;11.93;;;3.80;;
40072;SDS011;25774;52.256;9.356;2022-12-18T13:40:59;7.88;;;3.15;;
40072;SDS011;25774;52.256;9.356;2022-12-18T13:43:48;8.93;;;3.85;;
40072;SDS011;25774;52.256;9.356;2022-12-18T13:48:56;9.73;;;3.90;;
40072;SDS011;25774;52.256;9.356;2022-12-18T13:51:31;7.90;;;4.10;;
40072;SDS011;25774;52.256;9.356;2022-12-18T13:54:00;9.13;;;3.55;;
40072;SDS011;25774;52.256;9.356;2022-12-18T13:56:31;12.85;;;4.32;;
40072;SDS011;25774;52.256;9.356;2022-12-18T13:59:18;9.98;;;4.57;;
40072;SDS011;25774;52.256;9.356;2022-12-18T14:01:50;6.57;;;2.90;;
40072;SDS011;25774;52.256;9.356;2022-12-18T14:04:32;8.10;;;4.15;;
40072;SDS011;25774;52.256;9.356;2022-12-18T14:09:43;8.75;;;3.78;;
40072;SDS011;25774;52.256;9.356;2022-12-18T14:12:16;8.52;;;3.35;;
40072;SDS011;25774;52.256;9.356;2022-12-18T14:15:32;11.10;;;4.07;;
40072;SDS011;25774;52.256;9.356;2022-12-18T14:17:59;9.68;;;4.07;;
40072;SDS011;25774;52.256;9.356;2022-12-18T14:20:43;10.27;;;4.13;;
40072;SDS011;25774;52.256;9.356;2022-12-18T14:26:01;11.40;;;3.83;;
40072;SDS011;25774;52.256;9.356;2022-12-18T14:28:29;7.50;;;3.45;;
40072;SDS011;25774;52.256;9.356;2022-12-18T14:30:55;11.18;;;4.20;;
40072;SDS011;25774;52.256;9.356;2022-12-18T14:33:22;8.55;;;4.25;;
40072;SDS011;25774;52.256;9.356;2022-12-18T14:35:53;8.27;;;3.65;;
40072;SDS011;25774;52.256;9.356;2022-12-18T14:38:20;7.95;;;4.18;;
40072;SDS011;25774;52.256;9.356;2022-12-18T14:40:57;9.23;;;3.97;;
40072;SDS011;25774;52.256;9.356;2022-12-18T14:43:29;6.00;;;3.40;;
40072;SDS011;25774;52.256;9.356;2022-12-18T14:45:57;8.73;;;3.80;;
40072;SDS011;25774;52.256;9.356;2022-12-18T14:57:24;10.13;;;4.65;;
40072;SDS011;25774;52.256;9.356;2022-12-18T14:59:46;8.90;;;3.85;;
40072;SDS011;25774;52.256;9.356;2022-12-18T15:02:15;8.03;;;3.77;;
40072;SDS011;25774;52.256;9.356;2022-12-18T15:05:34;8.70;;;4.10;;
40072;SDS011;25774;52.256;9.356;2022-12-18T15:07:44;10.23;;;4.55;;
40072;SDS011;25774;52.256;9.356;2022-12-18T15:10:21;9.18;;;4.18;;
40072;SDS011;25774;52.256;9.356;2022-12-18T15:17:58;8.88;;;3.72;;
40072;SDS011;25774;52.256;9.356;2022-12-18T15:20:32;9.90;;;3.88;;
40072;SDS011;25774;52.256;9.356;2022-12-18T15:23:27;11.75;;;4.80;;
40072;SDS011;25774;52.256;9.356;2022-12-18T15:26:00;9.25;;;3.67;;
40072;SDS011;25774;52.256;9.356;2022-12-18T15:36:18;5.80;;;3.17;;
40072;SDS011;25774;52.256;9.356;2022-12-18T15:38:52;9.27;;;3.97;;
40072;SDS011;25774;52.256;9.356;2022-12-18T15:41:19;8.23;;;3.85;;
40072;SDS011;25774;52.256;9.356;2022-12-18T15:43:49;10.50;;;4.18;;
40072;SDS011;25774;52.256;9.356;2022-12-18T15:46:17;7.90;;;3.47;;
40072;SDS011;25774;52.256;9.356;2022-12-18T15:48:46;8.10;;;3.58;;
40072;SDS011;25774;52.256;9.356;2022-12-18T15:51:23;8.32;;;3.72;;
40072;SDS011;25774;52.256;9.356;2022-12-18T15:53:54;9.95;;;3.95;;
40072;SDS011;25774;52.256;9.356;2022-12-18T15:56:21;10.25;;;4.25;;
40072;SDS011;25774;52.256;9.356;2022-12-18T15:59:10;9.07;;;3.60;;
40072;SDS011;25774;52.256;9.356;2022-12-18T16:01:37;8.77;;;3.35;;
40072;SDS011;25774;52.256;9.356;2022-12-18T16:04:03;8.93;;;3.58;;
40072;SDS011;25774;52.256;9.356;2022-12-18T16:06:28;7.63;;;3.40;;
40072;SDS011;25774;52.256;9.356;2022-12-18T16:08:54;8.67;;;4.00;;
40072;SDS011;25774;52.256;9.356;2022-12-18T16:14:04;8.20;;;3.58;;
40072;SDS011;25774;52.256;9.356;2022-12-18T16:16:30;7.72;;;3.72;;
40072;SDS011;25774;52.256;9.356;2022-12-18T16:18:56;11.80;;;4.10;;
40072;SDS011;25774;52.256;9.356;2022-12-18T16:21:21;6.80;;;3.00;;
40072;SDS011;25774;52.256;9.356;2022-12-18T16:23:46;7.03;;;3.30;;
40072;SDS011;25774;52.256;9.356;2022-12-18T16:26:12;8.10;;;4.10;;
40072;SDS011;25774;52.256;9.356;2022-12-18T16:28:38;7.23;;;3.50;;
40072;SDS011;25774;52.256;9.356;2022-12-18T16:31:04;8.35;;;3.50;;
40072;SDS011;25774;52.256;9.356;2022-12-18T16:33:29;10.63;;;4.13;;
40072;SDS011;25774;52.256;9.356;2022-12-18T16:35:55;14.83;;;4.20;;
40072;SDS011;25774;52.256;9.356;2022-12-18T16:38:21;8.83;;;3.33;;
40072;SDS011;25774;52.256;9.356;2022-12-18T16:40:46;8.10;;;3.75;;
40072;SDS011;25774;52.256;9.356;2022-12-18T16:43:30;8.65;;;3.70;;
40072;SDS011;25774;52.256;9.356;2022-12-18T16:45:57;9.80;;;3.93;;
40072;SDS011;25774;52.256;9.356;2022-12-18T16:48:23;9.75;;;3.97;;
40072;SDS011;25774;52.256;9.356;2022-12-18T16:50:49;6.90;;;3.30;;
40072;SDS011;25774;52.256;9.356;2022-12-18T16:53:14;9.67;;;3.40;;
40072;SDS011;25774;52.256;9.356;2022-12-18T16:55:40;7.87;;;3.63;;
40072;SDS011;25774;52.256;9.356;2022-12-18T17:00:31;9.73;;;3.88;;
40072;SDS011;25774;52.256;9.356;2022-12-18T17:02:56;11.70;;;3.97;;
40072;SDS011;25774;52.256;9.356;2022-12-18T17:05:22;7.80;;;3.90;;
40072;SDS011;25774;52.256;9.356;2022-12-18T17:07:47;6.80;;;3.27;;
40072;SDS011;25774;52.256;9.356;2022-12-18T17:10:12;11.53;;;4.60;;
40072;SDS011;25774;52.256;9.356;2022-12-18T17:12:38;6.50;;;3.30;;
40072;SDS011;25774;52.256;9.356;2022-12-18T17:15:03;9.00;;;4.00;;
40072;SDS011;25774;52.256;9.356;2022-12-18T17:17:29;9.77;;;4.15;;